sensor_id;sensor_type;location;lat;lon;timestamp;P1;durP1;ratioP1;P2;durP2;ratioP2
12892;SDS011;6514;48.606;9.222;2024-03-23T00:53:06;6.37;;;3.23;;
12892;SDS011;6514;48.606;9.222;2024-03-23T00:55:32;4.53;;;3.10;;
12892;SDS011;6514;48.606;9.222;2024-03-23T00:57:59;5.07;;;2.80;;
12892;SDS011;6514;48.606;9.222;2024-03-23T01:00:25;4.27;;;2.87;;
12892;SDS011;6514;48.606;9.222;2024-03-23T01:02:51;3.03;;;2.23;;
12892;SDS011;6514;48.606;9.222;2024-03-23T01:05:17;2.57;;;2.30;;
12892;SDS011;6514;48.606;9.222;2024-03-23T01:07:45;2.87;;;2.13;;
12892;SDS011;6514;48.606;9.222;2024-03-23T01:10:12;2.97;;;2.20;;
12892;SDS011;6514;48.606;9.222;2024-03-23T01:12:39;2.90;;;1.80;;
12892;SDS011;6514;48.606;9.222;2024-03-23T01:15:05;2.27;;;2.00;;
12892;SDS011;6514;48.606;9.222;2024-03-23T01:17:32;2.83;;;2.30;;
12892;SDS011;6514;48.606;9.222;2024-03-23T01:19:57;3.87;;;2.33;;
12892;SDS011;6514;48.606;9.222;2024-03-23T01:22:24;4.23;;;2.37;;
12892;SDS011;6514;48.606;9.222;2024-03-23T01:24:50;2.43;;;2.13;;
12892;SDS011;6514;48.606;9.222;2024-03-23T01:27:18;2.10;;;1.90;;
12892;SDS011;6514;48.606;9.222;2024-03-23T01:29:44;2.60;;;2.23;;
12892;SDS011;6514;48.606;9.222;2024-03-23T01:32:11;4.27;;;2.30;;
12892;SDS011;6514;48.606;9.222;2024-03-23T01:34:36;2.37;;;1.90;;
12892;SDS011;6514;48.606;9.222;2024-03-23T01:37:03;2.07;;;1.90;;
12892;SDS011;6514;48.606;9.222;2024-03-23T01:39:29;4.00;;;1.83;;
12892;SDS011;6514;48.606;9.222;2024-03-23T01:41:56;2.30;;;2.10;;
12892;SDS011;6514;48.606;9.222;2024-03-23T01:44:23;1.97;;;1.77;;
12892;SDS011;6514;48.606;9.222;2024-03-23T01:46:50;2.77;;;2.00;;
12892;SDS011;6514;48.606;9.222;2024-03-23T01:49:16;2.37;;;1.90;;
12892;SDS011;6514;48.606;9.222;2024-03-23T01:51:44;2.63;;;1.80;;
12892;SDS011;6514;48.606;9.222;2024-03-23T01:54:10;2.70;;;2.00;;
12892;SDS011;6514;48.606;9.222;2024-03-23T01:56:37;2.40;;;2.10;;
12892;SDS011;6514;48.606;9.222;2024-03-23T01:59:03;4.03;;;2.30;;
12892;SDS011;6514;48.606;9.222;2024-03-23T02:01:31;2.40;;;1.90;;
12892;SDS011;6514;48.606;9.222;2024-03-23T02:03:58;2.17;;;1.97;;
12892;SDS011;6514;48.606;9.222;2024-03-23T02:06:24;3.00;;;2.17;;
12892;SDS011;6514;48.606;9.222;2024-03-23T02:08:50;4.50;;;1.87;;
12892;SDS011;6514;48.606;9.222;2024-03-23T02:11:17;2.13;;;1.90;;
12892;SDS011;6514;48.606;9.222;2024-03-23T02:13:43;3.07;;;1.90;;
12892;SDS011;6514;48.606;9.222;2024-03-23T02:16:10;3.40;;;2.10;;
12892;SDS011;6514;48.606;9.222;2024-03-23T02:18:37;3.23;;;1.93;;
12892;SDS011;6514;48.606;9.222;2024-03-23T02:21:04;3.60;;;2.00;;
12892;SDS011;6514;48.606;9.222;2024-03-23T02:23:31;3.80;;;2.00;;
12892;SDS011;6514;48.606;9.222;2024-03-23T02:25:58;3.40;;;3.10;;
12892;SDS011;6514;48.606;9.222;2024-03-23T02:28:24;3.00;;;2.03;;
12892;SDS011;6514;48.606;9.222;2024-03-23T02:30:51;3.10;;;1.90;;
12892;SDS011;6514;48.606;9.222;2024-03-23T02:33:17;2.50;;;1.77;;
12892;SDS011;6514;48.606;9.222;2024-03-23T02:35:44;1.90;;;1.70;;
12892;SDS011;6514;48.606;9.222;2024-03-23T02:38:10;2.33;;;1.70;;
12892;SDS011;6514;48.606;9.222;2024-03-23T02:40:38;1.53;;;1.43;;
12892;SDS011;6514;48.606;9.222;2024-03-23T02:43:04;4.20;;;1.90;;
12892;SDS011;6514;48.606;9.222;2024-03-23T02:45:31;1.60;;;1.50;;
12892;SDS011;6514;48.606;9.222;2024-03-23T02:47:57;2.83;;;1.90;;
12892;SDS011;6514;48.606;9.222;2024-03-23T02:50:23;1.70;;;1.40;;
12892;SDS011;6514;48.606;9.222;2024-03-23T02:52:49;2.87;;;1.80;;
12892;SDS011;6514;48.606;9.222;2024-03-23T02:55:16;3.60;;;1.50;;
12892;SDS011;6514;48.606;9.222;2024-03-23T02:57:43;2.90;;;1.77;;
12892;SDS011;6514;48.606;9.222;2024-03-23T03:00:10;2.90;;;1.80;;
12892;SDS011;6514;48.606;9.222;2024-03-23T03:02:37;4.03;;;1.70;;
12892;SDS011;6514;48.606;9.222;2024-03-23T03:05:05;3.43;;;1.70;;
12892;SDS011;6514;48.606;9.222;2024-03-23T03:07:31;3.20;;;1.70;;
12892;SDS011;6514;48.606;9.222;2024-03-23T03:09:58;1.70;;;1.57;;
12892;SDS011;6514;48.606;9.222;2024-03-23T03:12:24;2.33;;;1.70;;
12892;SDS011;6514;48.606;9.222;2024-03-23T03:14:52;2.67;;;1.93;;
12892;SDS011;6514;48.606;9.222;2024-03-23T03:17:18;4.50;;;1.80;;
12892;SDS011;6514;48.606;9.222;2024-03-23T03:19:45;1.77;;;1.33;;
12892;SDS011;6514;48.606;9.222;2024-03-23T03:22:11;2.13;;;1.80;;
12892;SDS011;6514;48.606;9.222;2024-03-23T03:24:37;2.60;;;1.60;;
12892;SDS011;6514;48.606;9.222;2024-03-23T03:27:03;2.30;;;1.57;;
12892;SDS011;6514;48.606;9.222;2024-03-23T03:29:31;3.13;;;2.00;;
12892;SDS011;6514;48.606;9.222;2024-03-23T03:32:02;2.90;;;1.60;;
12892;SDS011;6514;48.606;9.222;2024-03-23T03:34:29;2.10;;;1.80;;
12892;SDS011;6514;48.606;9.222;2024-03-23T03:36:55;2.87;;;1.70;;
12892;SDS011;6514;48.606;9.222;2024-03-23T03:39:22;3.10;;;1.43;;
12892;SDS011;6514;48.606;9.222;2024-03-23T03:41:48;3.00;;;1.67;;
12892;SDS011;6514;48.606;9.222;2024-03-23T03:44:15;3.07;;;2.13;;
12892;SDS011;6514;48.606;9.222;2024-03-23T03:46:41;2.23;;;1.70;;
12892;SDS011;6514;48.606;9.222;2024-03-23T03:49:09;3.10;;;1.50;;
12892;SDS011;6514;48.606;9.222;2024-03-23T03:51:35;2.30;;;1.70;;
12892;SDS011;6514;48.606;9.222;2024-03-23T03:54:02;1.63;;;1.53;;
12892;SDS011;6514;48.606;9.222;2024-03-23T03:56:28;2.80;;;1.63;;
12892;SDS011;6514;48.606;9.222;2024-03-23T03:58:55;2.57;;;1.70;;
12892;SDS011;6514;48.606;9.222;2024-03-23T04:01:20;3.27;;;2.10;;
12892;SDS011;6514;48.606;9.222;2024-03-23T04:03:47;1.80;;;1.70;;
12892;SDS011;6514;48.606;9.222;2024-03-23T04:06:19;2.43;;;1.80;;
12892;SDS011;6514;48.606;9.222;2024-03-23T04:08:46;3.20;;;1.73;;
12892;SDS011;6514;48.606;9.222;2024-03-23T04:11:12;2.77;;;2.07;;
12892;SDS011;6514;48.606;9.222;2024-03-23T04:13:39;3.40;;;3.10;;
12892;SDS011;6514;48.606;9.222;2024-03-23T04:16:06;3.30;;;2.30;;
12892;SDS011;6514;48.606;9.222;2024-03-23T04:18:34;2.67;;;2.37;;
12892;SDS011;6514;48.606;9.222;2024-03-23T04:21:00;3.43;;;2.50;;
12892;SDS011;6514;48.606;9.222;2024-03-23T04:23:28;3.67;;;3.00;;
12892;SDS011;6514;48.606;9.222;2024-03-23T04:25:54;3.47;;;2.70;;
12892;SDS011;6514;48.606;9.222;2024-03-23T04:28:21;3.73;;;2.67;;
12892;SDS011;6514;48.606;9.222;2024-03-23T04:30:47;3.43;;;3.00;;
12892;SDS011;6514;48.606;9.222;2024-03-23T04:33:14;4.23;;;2.90;;
12892;SDS011;6514;48.606;9.222;2024-03-23T04:35:39;3.33;;;2.80;;
12892;SDS011;6514;48.606;9.222;2024-03-23T04:38:06;3.50;;;2.83;;
12892;SDS011;6514;48.606;9.222;2024-03-23T04:40:35;4.77;;;2.80;;
12892;SDS011;6514;48.606;9.222;2024-03-23T04:43:02;3.50;;;2.43;;
12892;SDS011;6514;48.606;9.222;2024-03-23T04:45:29;2.53;;;2.33;;
12892;SDS011;6514;48.606;9.222;2024-03-23T04:47:56;3.00;;;2.37;;
12892;SDS011;6514;48.606;9.222;2024-03-23T04:50:23;4.97;;;2.30;;
12892;SDS011;6514;48.606;9.222;2024-03-23T04:52:49;3.23;;;2.43;;
12892;SDS011;6514;48.606;9.222;2024-03-23T04:55:16;2.73;;;2.50;;
12892;SDS011;6514;48.606;9.222;2024-03-23T04:57:44;4.87;;;2.30;;
12892;SDS011;6514;48.606;9.222;2024-03-23T05:00:11;3.37;;;2.10;;
12892;SDS011;6514;48.606;9.222;2024-03-23T05:02:43;3.17;;;2.33;;
12892;SDS011;6514;48.606;9.222;2024-03-23T05:05:11;3.37;;;2.47;;
12892;SDS011;6514;48.606;9.222;2024-03-23T05:07:37;2.43;;;1.83;;
12892;SDS011;6514;48.606;9.222;2024-03-23T05:10:04;4.13;;;2.30;;
12892;SDS011;6514;48.606;9.222;2024-03-23T05:12:30;2.17;;;1.90;;
12892;SDS011;6514;48.606;9.222;2024-03-23T05:14:59;2.10;;;1.50;;
12892;SDS011;6514;48.606;9.222;2024-03-23T05:17:24;4.47;;;2.07;;
12892;SDS011;6514;48.606;9.222;2024-03-23T05:19:51;3.47;;;2.20;;
12892;SDS011;6514;48.606;9.222;2024-03-23T05:22:17;4.20;;;2.50;;
12892;SDS011;6514;48.606;9.222;2024-03-23T05:24:44;5.67;;;2.70;;
12892;SDS011;6514;48.606;9.222;2024-03-23T05:27:10;3.40;;;2.20;;
12892;SDS011;6514;48.606;9.222;2024-03-23T05:29:37;2.53;;;2.30;;
12892;SDS011;6514;48.606;9.222;2024-03-23T05:32:04;3.17;;;2.30;;
12892;SDS011;6514;48.606;9.222;2024-03-23T05:34:31;2.83;;;2.53;;
12892;SDS011;6514;48.606;9.222;2024-03-23T05:36:57;2.70;;;2.50;;
12892;SDS011;6514;48.606;9.222;2024-03-23T05:39:26;3.10;;;2.60;;
12892;SDS011;6514;48.606;9.222;2024-03-23T05:41:52;4.47;;;2.73;;
12892;SDS011;6514;48.606;9.222;2024-03-23T05:44:19;3.07;;;2.73;;
12892;SDS011;6514;48.606;9.222;2024-03-23T05:46:45;4.07;;;3.17;;
12892;SDS011;6514;48.606;9.222;2024-03-23T05:49:15;5.87;;;3.73;;
12892;SDS011;6514;48.606;9.222;2024-03-23T05:51:41;5.30;;;4.00;;
12892;SDS011;6514;48.606;9.222;2024-03-23T05:54:08;5.77;;;4.10;;
12892;SDS011;6514;48.606;9.222;2024-03-23T05:56:33;6.70;;;4.50;;
12892;SDS011;6514;48.606;9.222;2024-03-23T05:59:00;4.73;;;3.73;;
12892;SDS011;6514;48.606;9.222;2024-03-23T06:01:28;6.17;;;4.50;;
12892;SDS011;6514;48.606;9.222;2024-03-23T06:03:57;6.73;;;5.17;;
12892;SDS011;6514;48.606;9.222;2024-03-23T06:06:24;6.30;;;4.70;;
12892;SDS011;6514;48.606;9.222;2024-03-23T06:08:51;5.33;;;4.60;;
12892;SDS011;6514;48.606;9.222;2024-03-23T06:11:17;7.03;;;5.00;;
12892;SDS011;6514;48.606;9.222;2024-03-23T06:13:44;6.63;;;5.10;;
12892;SDS011;6514;48.606;9.222;2024-03-23T06:16:09;6.87;;;4.87;;
12892;SDS011;6514;48.606;9.222;2024-03-23T06:18:36;5.57;;;4.40;;
12892;SDS011;6514;48.606;9.222;2024-03-23T06:21:02;4.87;;;3.70;;
12892;SDS011;6514;48.606;9.222;2024-03-23T06:23:31;4.80;;;4.00;;
12892;SDS011;6514;48.606;9.222;2024-03-23T06:25:57;4.93;;;3.83;;
12892;SDS011;6514;48.606;9.222;2024-03-23T06:28:23;3.20;;;2.80;;
12892;SDS011;6514;48.606;9.222;2024-03-23T06:30:49;4.10;;;3.43;;
12892;SDS011;6514;48.606;9.222;2024-03-23T06:33:16;2.60;;;2.30;;
12892;SDS011;6514;48.606;9.222;2024-03-23T06:35:42;3.40;;;2.80;;
12892;SDS011;6514;48.606;9.222;2024-03-23T06:38:09;3.87;;;2.53;;
12892;SDS011;6514;48.606;9.222;2024-03-23T06:40:37;2.07;;;1.70;;
12892;SDS011;6514;48.606;9.222;2024-03-23T06:43:03;2.00;;;1.73;;
12892;SDS011;6514;48.606;9.222;2024-03-23T06:45:30;1.30;;;1.00;;
12892;SDS011;6514;48.606;9.222;2024-03-23T06:47:57;2.60;;;1.10;;
12892;SDS011;6514;48.606;9.222;2024-03-23T06:50:23;1.87;;;1.60;;
12892;SDS011;6514;48.606;9.222;2024-03-23T06:52:50;1.20;;;1.10;;
12892;SDS011;6514;48.606;9.222;2024-03-23T06:55:15;1.20;;;1.10;;
12892;SDS011;6514;48.606;9.222;2024-03-23T06:57:44;2.27;;;1.27;;
12892;SDS011;6514;48.606;9.222;2024-03-23T07:00:10;1.47;;;1.17;;
12892;SDS011;6514;48.606;9.222;2024-03-23T07:02:38;2.20;;;1.27;;
12892;SDS011;6514;48.606;9.222;2024-03-23T07:05:04;1.20;;;1.10;;
12892;SDS011;6514;48.606;9.222;2024-03-23T07:07:32;1.37;;;1.27;;
12892;SDS011;6514;48.606;9.222;2024-03-23T07:09:57;1.50;;;1.30;;
12892;SDS011;6514;48.606;9.222;2024-03-23T07:12:24;2.60;;;1.30;;
12892;SDS011;6514;48.606;9.222;2024-03-23T07:14:51;1.40;;;1.10;;
12892;SDS011;6514;48.606;9.222;2024-03-23T07:17:18;1.00;;;0.90;;
12892;SDS011;6514;48.606;9.222;2024-03-23T07:19:44;1.60;;;0.90;;
12892;SDS011;6514;48.606;9.222;2024-03-23T07:22:12;0.90;;;0.80;;
12892;SDS011;6514;48.606;9.222;2024-03-23T07:24:39;0.70;;;0.70;;
12892;SDS011;6514;48.606;9.222;2024-03-23T07:27:06;0.70;;;0.70;;
12892;SDS011;6514;48.606;9.222;2024-03-23T07:29:35;0.67;;;0.60;;
12892;SDS011;6514;48.606;9.222;2024-03-23T07:32:03;0.40;;;0.40;;
12892;SDS011;6514;48.606;9.222;2024-03-23T07:34:29;0.33;;;0.33;;
12892;SDS011;6514;48.606;9.222;2024-03-23T07:36:56;0.40;;;0.40;;
12892;SDS011;6514;48.606;9.222;2024-03-23T07:39:25;0.40;;;0.40;;
12892;SDS011;6514;48.606;9.222;2024-03-23T07:41:52;0.50;;;0.40;;
12892;SDS011;6514;48.606;9.222;2024-03-23T07:44:18;0.37;;;0.37;;
12892;SDS011;6514;48.606;9.222;2024-03-23T07:46:45;0.30;;;0.30;;
12892;SDS011;6514;48.606;9.222;2024-03-23T07:49:12;0.50;;;0.40;;
12892;SDS011;6514;48.606;9.222;2024-03-23T07:51:39;0.30;;;0.30;;
12892;SDS011;6514;48.606;9.222;2024-03-23T07:54:05;0.30;;;0.30;;
12892;SDS011;6514;48.606;9.222;2024-03-23T07:56:32;0.30;;;0.30;;
12892;SDS011;6514;48.606;9.222;2024-03-23T07:58:59;0.20;;;0.20;;
12892;SDS011;6514;48.606;9.222;2024-03-23T08:01:28;0.30;;;0.30;;
12892;SDS011;6514;48.606;9.222;2024-03-23T08:03:54;1.23;;;0.40;;
12892;SDS011;6514;48.606;9.222;2024-03-23T08:06:23;0.60;;;0.40;;
12892;SDS011;6514;48.606;9.222;2024-03-23T08:08:50;0.30;;;0.30;;
12892;SDS011;6514;48.606;9.222;2024-03-23T08:11:24;0.17;;;0.17;;
12892;SDS011;6514;48.606;9.222;2024-03-23T08:13:50;0.40;;;0.20;;
12892;SDS011;6514;48.606;9.222;2024-03-23T08:16:17;0.33;;;0.33;;
12892;SDS011;6514;48.606;9.222;2024-03-23T08:18:43;0.30;;;0.30;;
12892;SDS011;6514;48.606;9.222;2024-03-23T08:21:10;0.30;;;0.30;;
12892;SDS011;6514;48.606;9.222;2024-03-23T08:23:38;0.30;;;0.30;;
12892;SDS011;6514;48.606;9.222;2024-03-23T08:26:06;0.40;;;0.40;;
12892;SDS011;6514;48.606;9.222;2024-03-23T08:28:33;1.13;;;0.37;;
12892;SDS011;6514;48.606;9.222;2024-03-23T08:31:01;0.40;;;0.30;;
12892;SDS011;6514;48.606;9.222;2024-03-23T08:33:30;0.30;;;0.30;;
12892;SDS011;6514;48.606;9.222;2024-03-23T08:35:58;0.27;;;0.27;;
12892;SDS011;6514;48.606;9.222;2024-03-23T08:38:25;0.53;;;0.53;;
12892;SDS011;6514;48.606;9.222;2024-03-23T08:40:57;0.70;;;0.60;;
12892;SDS011;6514;48.606;9.222;2024-03-23T08:43:24;1.00;;;0.37;;
12892;SDS011;6514;48.606;9.222;2024-03-23T08:45:51;1.23;;;0.50;;
12892;SDS011;6514;48.606;9.222;2024-03-23T08:48:17;0.60;;;0.60;;
12892;SDS011;6514;48.606;9.222;2024-03-23T08:50:45;0.60;;;0.50;;
12892;SDS011;6514;48.606;9.222;2024-03-23T08:53:11;1.00;;;0.60;;
12892;SDS011;6514;48.606;9.222;2024-03-23T08:55:38;1.40;;;0.57;;
12892;SDS011;6514;48.606;9.222;2024-03-23T08:58:07;1.80;;;1.03;;
12892;SDS011;6514;48.606;9.222;2024-03-23T09:00:33;1.20;;;0.70;;
12892;SDS011;6514;48.606;9.222;2024-03-23T09:03:00;0.70;;;0.70;;
12892;SDS011;6514;48.606;9.222;2024-03-23T09:05:27;0.87;;;0.70;;
12892;SDS011;6514;48.606;9.222;2024-03-23T09:07:55;3.03;;;0.80;;
12892;SDS011;6514;48.606;9.222;2024-03-23T09:10:21;1.53;;;0.80;;
12892;SDS011;6514;48.606;9.222;2024-03-23T09:12:48;2.87;;;1.00;;
12892;SDS011;6514;48.606;9.222;2024-03-23T09:15:15;1.70;;;1.00;;
12892;SDS011;6514;48.606;9.222;2024-03-23T09:17:42;3.83;;;0.90;;
12892;SDS011;6514;48.606;9.222;2024-03-23T09:20:09;2.47;;;1.07;;
12892;SDS011;6514;48.606;9.222;2024-03-23T09:22:36;2.70;;;1.00;;
12892;SDS011;6514;48.606;9.222;2024-03-23T09:25:02;2.10;;;1.20;;
12892;SDS011;6514;48.606;9.222;2024-03-23T09:27:30;2.27;;;1.50;;
12892;SDS011;6514;48.606;9.222;2024-03-23T09:29:56;2.63;;;1.40;;
12892;SDS011;6514;48.606;9.222;2024-03-23T09:32:25;2.53;;;1.60;;
12892;SDS011;6514;48.606;9.222;2024-03-23T09:34:51;2.17;;;1.63;;
12892;SDS011;6514;48.606;9.222;2024-03-23T09:37:18;4.00;;;1.60;;
12892;SDS011;6514;48.606;9.222;2024-03-23T09:39:44;3.07;;;1.23;;
12892;SDS011;6514;48.606;9.222;2024-03-23T09:42:11;3.77;;;1.57;;
12892;SDS011;6514;48.606;9.222;2024-03-23T09:44:37;3.80;;;1.67;;
12892;SDS011;6514;48.606;9.222;2024-03-23T09:47:03;2.37;;;1.57;;
12892;SDS011;6514;48.606;9.222;2024-03-23T09:49:32;2.87;;;1.70;;
12892;SDS011;6514;48.606;9.222;2024-03-23T09:52:01;2.90;;;1.73;;
12892;SDS011;6514;48.606;9.222;2024-03-23T09:54:27;4.40;;;1.73;;
12892;SDS011;6514;48.606;9.222;2024-03-23T09:56:54;2.40;;;1.40;;
12892;SDS011;6514;48.606;9.222;2024-03-23T09:59:20;3.70;;;1.67;;
12892;SDS011;6514;48.606;9.222;2024-03-23T10:01:47;3.80;;;1.87;;
12892;SDS011;6514;48.606;9.222;2024-03-23T10:07:10;4.00;;;1.80;;
12892;SDS011;6514;48.606;9.222;2024-03-23T10:09:37;2.30;;;1.70;;
12892;SDS011;6514;48.606;9.222;2024-03-23T10:12:08;3.00;;;1.83;;
12892;SDS011;6514;48.606;9.222;2024-03-23T10:14:35;5.43;;;1.80;;
12892;SDS011;6514;48.606;9.222;2024-03-23T10:17:11;4.53;;;2.00;;
12892;SDS011;6514;48.606;9.222;2024-03-23T10:19:40;4.70;;;1.70;;
12892;SDS011;6514;48.606;9.222;2024-03-23T10:22:08;2.90;;;1.63;;
12892;SDS011;6514;48.606;9.222;2024-03-23T10:24:35;5.73;;;1.60;;
12892;SDS011;6514;48.606;9.222;2024-03-23T10:27:02;3.47;;;1.90;;
12892;SDS011;6514;48.606;9.222;2024-03-23T10:29:27;6.27;;;2.43;;
12892;SDS011;6514;48.606;9.222;2024-03-23T10:31:56;3.53;;;1.70;;
12892;SDS011;6514;48.606;9.222;2024-03-23T10:34:33;4.07;;;2.00;;
12892;SDS011;6514;48.606;9.222;2024-03-23T10:37:02;4.17;;;2.20;;
12892;SDS011;6514;48.606;9.222;2024-03-23T10:39:30;3.27;;;1.97;;
12892;SDS011;6514;48.606;9.222;2024-03-23T10:42:00;5.40;;;2.30;;
12892;SDS011;6514;48.606;9.222;2024-03-23T10:44:30;3.30;;;2.00;;
12892;SDS011;6514;48.606;9.222;2024-03-23T10:46:58;4.47;;;2.00;;
12892;SDS011;6514;48.606;9.222;2024-03-23T10:49:25;7.80;;;2.30;;
12892;SDS011;6514;48.606;9.222;2024-03-23T10:51:54;8.53;;;2.27;;
12892;SDS011;6514;48.606;9.222;2024-03-23T10:54:23;5.47;;;2.20;;
12892;SDS011;6514;48.606;9.222;2024-03-23T10:56:52;3.53;;;2.10;;
12892;SDS011;6514;48.606;9.222;2024-03-23T10:59:21;5.67;;;2.57;;
12892;SDS011;6514;48.606;9.222;2024-03-23T11:01:55;1.87;;;1.00;;
12892;SDS011;6514;48.606;9.222;2024-03-23T11:04:32;1.40;;;0.83;;
12892;SDS011;6514;48.606;9.222;2024-03-23T11:06:59;1.60;;;0.97;;
12892;SDS011;6514;48.606;9.222;2024-03-23T11:12:17;2.43;;;1.03;;
12892;SDS011;6514;48.606;9.222;2024-03-23T11:14:57;2.90;;;1.60;;
12892;SDS011;6514;48.606;9.222;2024-03-23T11:17:27;1.03;;;0.90;;
12892;SDS011;6514;48.606;9.222;2024-03-23T11:19:54;2.07;;;1.00;;
12892;SDS011;6514;48.606;9.222;2024-03-23T11:22:38;2.70;;;1.23;;
12892;SDS011;6514;48.606;9.222;2024-03-23T11:25:13;4.80;;;0.60;;
12892;SDS011;6514;48.606;9.222;2024-03-23T11:27:41;2.37;;;0.90;;
12892;SDS011;6514;48.606;9.222;2024-03-23T11:30:15;1.60;;;1.13;;
12892;SDS011;6514;48.606;9.222;2024-03-23T11:32:43;2.90;;;1.30;;
12892;SDS011;6514;48.606;9.222;2024-03-23T11:35:10;3.43;;;1.20;;
12892;SDS011;6514;48.606;9.222;2024-03-23T11:38:00;2.20;;;0.93;;
12892;SDS011;6514;48.606;9.222;2024-03-23T11:40:29;1.83;;;0.93;;
12892;SDS011;6514;48.606;9.222;2024-03-23T11:42:56;2.23;;;1.10;;
12892;SDS011;6514;48.606;9.222;2024-03-23T11:45:23;2.57;;;1.10;;
12892;SDS011;6514;48.606;9.222;2024-03-23T11:48:01;3.53;;;1.40;;
12892;SDS011;6514;48.606;9.222;2024-03-23T11:50:28;2.33;;;1.60;;
12892;SDS011;6514;48.606;9.222;2024-03-23T11:53:05;1.03;;;0.80;;
12892;SDS011;6514;48.606;9.222;2024-03-23T11:55:39;1.80;;;0.93;;
12892;SDS011;6514;48.606;9.222;2024-03-23T11:58:10;2.03;;;1.00;;
12892;SDS011;6514;48.606;9.222;2024-03-23T12:00:36;4.80;;;1.40;;
12892;SDS011;6514;48.606;9.222;2024-03-23T12:03:03;3.37;;;1.10;;
12892;SDS011;6514;48.606;9.222;2024-03-23T12:05:30;4.50;;;1.17;;
12892;SDS011;6514;48.606;9.222;2024-03-23T12:10:48;5.07;;;1.17;;
12892;SDS011;6514;48.606;9.222;2024-03-23T12:13:16;4.03;;;1.20;;
12892;SDS011;6514;48.606;9.222;2024-03-23T12:15:44;2.47;;;1.17;;
12892;SDS011;6514;48.606;9.222;2024-03-23T12:18:10;3.73;;;1.13;;
12892;SDS011;6514;48.606;9.222;2024-03-23T12:20:38;2.57;;;1.20;;
12892;SDS011;6514;48.606;9.222;2024-03-23T12:23:05;4.40;;;1.20;;
12892;SDS011;6514;48.606;9.222;2024-03-23T12:25:36;4.07;;;1.27;;
12892;SDS011;6514;48.606;9.222;2024-03-23T12:28:04;4.23;;;1.70;;
12892;SDS011;6514;48.606;9.222;2024-03-23T12:30:33;4.00;;;1.23;;
12892;SDS011;6514;48.606;9.222;2024-03-23T12:32:59;2.67;;;0.90;;
12892;SDS011;6514;48.606;9.222;2024-03-23T12:35:26;2.93;;;1.30;;
12892;SDS011;6514;48.606;9.222;2024-03-23T12:37:52;3.47;;;1.33;;
12892;SDS011;6514;48.606;9.222;2024-03-23T12:40:19;4.40;;;1.30;;
12892;SDS011;6514;48.606;9.222;2024-03-23T12:42:45;4.03;;;1.67;;
12892;SDS011;6514;48.606;9.222;2024-03-23T12:45:13;4.30;;;1.80;;
12892;SDS011;6514;48.606;9.222;2024-03-23T12:47:39;3.37;;;1.70;;
12892;SDS011;6514;48.606;9.222;2024-03-23T12:50:06;2.97;;;1.50;;
12892;SDS011;6514;48.606;9.222;2024-03-23T12:52:33;3.73;;;1.53;;
12892;SDS011;6514;48.606;9.222;2024-03-23T12:54:59;3.10;;;1.50;;
12892;SDS011;6514;48.606;9.222;2024-03-23T12:57:25;2.37;;;1.40;;
12892;SDS011;6514;48.606;9.222;2024-03-23T12:59:53;3.37;;;1.60;;
12892;SDS011;6514;48.606;9.222;2024-03-23T13:02:20;4.83;;;1.60;;
12892;SDS011;6514;48.606;9.222;2024-03-23T13:04:49;2.93;;;1.70;;
12892;SDS011;6514;48.606;9.222;2024-03-23T13:07:15;1.80;;;1.60;;
12892;SDS011;6514;48.606;9.222;2024-03-23T13:09:42;2.63;;;1.30;;
12892;SDS011;6514;48.606;9.222;2024-03-23T13:12:08;2.87;;;1.53;;
12892;SDS011;6514;48.606;9.222;2024-03-23T13:14:37;3.07;;;1.50;;
12892;SDS011;6514;48.606;9.222;2024-03-23T13:17:03;2.97;;;1.57;;
12892;SDS011;6514;48.606;9.222;2024-03-23T13:19:32;2.90;;;1.53;;
12892;SDS011;6514;48.606;9.222;2024-03-23T13:21:58;3.80;;;1.23;;
12892;SDS011;6514;48.606;9.222;2024-03-23T13:24:26;1.53;;;1.00;;
12892;SDS011;6514;48.606;9.222;2024-03-23T13:26:53;3.03;;;1.57;;
12892;SDS011;6514;48.606;9.222;2024-03-23T13:29:20;4.43;;;1.77;;
12892;SDS011;6514;48.606;9.222;2024-03-23T13:31:47;2.03;;;1.47;;
12892;SDS011;6514;48.606;9.222;2024-03-23T13:34:17;2.93;;;1.43;;
12892;SDS011;6514;48.606;9.222;2024-03-23T13:36:45;2.30;;;0.77;;
12892;SDS011;6514;48.606;9.222;2024-03-23T13:39:13;1.80;;;0.80;;
12892;SDS011;6514;48.606;9.222;2024-03-23T13:41:40;1.00;;;0.77;;
12892;SDS011;6514;48.606;9.222;2024-03-23T13:44:08;1.40;;;0.70;;
12892;SDS011;6514;48.606;9.222;2024-03-23T13:46:35;0.73;;;0.57;;
12892;SDS011;6514;48.606;9.222;2024-03-23T13:49:02;2.57;;;0.70;;
12892;SDS011;6514;48.606;9.222;2024-03-23T13:51:28;0.77;;;0.60;;
12892;SDS011;6514;48.606;9.222;2024-03-23T13:53:57;2.50;;;0.70;;
12892;SDS011;6514;48.606;9.222;2024-03-23T13:56:25;3.63;;;0.70;;
12892;SDS011;6514;48.606;9.222;2024-03-23T13:58:54;1.97;;;0.60;;
12892;SDS011;6514;48.606;9.222;2024-03-23T14:01:20;1.23;;;0.73;;
12892;SDS011;6514;48.606;9.222;2024-03-23T14:03:46;3.00;;;1.10;;
12892;SDS011;6514;48.606;9.222;2024-03-23T14:06:12;4.00;;;1.10;;
12892;SDS011;6514;48.606;9.222;2024-03-23T14:08:39;1.90;;;0.80;;
12892;SDS011;6514;48.606;9.222;2024-03-23T14:11:08;2.40;;;1.03;;
12892;SDS011;6514;48.606;9.222;2024-03-23T14:13:35;2.83;;;1.17;;
12892;SDS011;6514;48.606;9.222;2024-03-23T14:16:01;2.50;;;1.00;;
12892;SDS011;6514;48.606;9.222;2024-03-23T14:18:29;2.00;;;0.80;;
12892;SDS011;6514;48.606;9.222;2024-03-23T14:20:56;2.23;;;1.07;;
12892;SDS011;6514;48.606;9.222;2024-03-23T14:23:24;2.23;;;0.60;;
12892;SDS011;6514;48.606;9.222;2024-03-23T14:25:52;1.23;;;0.70;;
12892;SDS011;6514;48.606;9.222;2024-03-23T14:28:21;3.90;;;1.07;;
12892;SDS011;6514;48.606;9.222;2024-03-23T14:30:47;3.37;;;1.17;;
12892;SDS011;6514;48.606;9.222;2024-03-23T14:33:14;1.57;;;0.80;;
12892;SDS011;6514;48.606;9.222;2024-03-23T14:35:40;2.77;;;0.73;;
12892;SDS011;6514;48.606;9.222;2024-03-23T14:38:07;3.17;;;0.80;;
12892;SDS011;6514;48.606;9.222;2024-03-23T14:40:33;1.47;;;0.80;;
12892;SDS011;6514;48.606;9.222;2024-03-23T14:43:00;2.93;;;0.90;;
12892;SDS011;6514;48.606;9.222;2024-03-23T14:45:29;2.37;;;1.00;;
12892;SDS011;6514;48.606;9.222;2024-03-23T14:47:55;2.27;;;0.70;;
12892;SDS011;6514;48.606;9.222;2024-03-23T14:50:23;1.63;;;0.80;;
12892;SDS011;6514;48.606;9.222;2024-03-23T14:52:50;2.33;;;0.80;;
12892;SDS011;6514;48.606;9.222;2024-03-23T14:55:16;2.07;;;0.90;;
12892;SDS011;6514;48.606;9.222;2024-03-23T14:57:43;2.40;;;0.70;;
12892;SDS011;6514;48.606;9.222;2024-03-23T15:00:09;3.07;;;0.90;;
12892;SDS011;6514;48.606;9.222;2024-03-23T15:02:38;1.80;;;0.90;;
12892;SDS011;6514;48.606;9.222;2024-03-23T15:05:05;0.97;;;0.70;;
12892;SDS011;6514;48.606;9.222;2024-03-23T15:07:34;3.10;;;0.70;;
12892;SDS011;6514;48.606;9.222;2024-03-23T15:10:00;1.13;;;0.60;;
12892;SDS011;6514;48.606;9.222;2024-03-23T15:12:29;0.70;;;0.60;;
12892;SDS011;6514;48.606;9.222;2024-03-23T15:14:57;0.50;;;0.50;;
12892;SDS011;6514;48.606;9.222;2024-03-23T15:17:24;1.10;;;0.70;;
12892;SDS011;6514;48.606;9.222;2024-03-23T15:19:51;1.50;;;0.73;;
12892;SDS011;6514;48.606;9.222;2024-03-23T15:22:18;2.13;;;0.80;;
12892;SDS011;6514;48.606;9.222;2024-03-23T15:24:44;2.43;;;0.70;;
12892;SDS011;6514;48.606;9.222;2024-03-23T15:27:11;2.20;;;1.13;;
12892;SDS011;6514;48.606;9.222;2024-03-23T15:29:37;1.37;;;1.00;;
12892;SDS011;6514;48.606;9.222;2024-03-23T15:32:04;2.13;;;0.97;;
12892;SDS011;6514;48.606;9.222;2024-03-23T15:34:30;0.73;;;0.73;;
12892;SDS011;6514;48.606;9.222;2024-03-23T15:36:58;2.17;;;0.70;;
12892;SDS011;6514;48.606;9.222;2024-03-23T15:39:24;0.83;;;0.80;;
12892;SDS011;6514;48.606;9.222;2024-03-23T15:41:51;1.10;;;0.70;;
12892;SDS011;6514;48.606;9.222;2024-03-23T15:44:19;1.03;;;0.70;;
12892;SDS011;6514;48.606;9.222;2024-03-23T15:46:46;1.83;;;0.70;;
12892;SDS011;6514;48.606;9.222;2024-03-23T15:49:11;1.00;;;0.60;;
12892;SDS011;6514;48.606;9.222;2024-03-23T15:51:38;3.90;;;1.47;;
12892;SDS011;6514;48.606;9.222;2024-03-23T15:54:08;1.93;;;1.00;;
12892;SDS011;6514;48.606;9.222;2024-03-23T15:56:35;4.10;;;0.73;;
12892;SDS011;6514;48.606;9.222;2024-03-23T15:59:00;1.80;;;0.67;;
12892;SDS011;6514;48.606;9.222;2024-03-23T16:01:30;2.93;;;0.70;;